Time;durP1;ratioP1;P1;durP2;ratioP2;P2;SDS_P1;SDS_P2;PMS_P1;PMS_P2;Temp;Humidity;BMP_temperature;BMP_pressure;BME280_temperature;BME280_humidity;BME280_pressure;Samples;Min_cycle;Max_cycle;Signal;HPM_P1;HPM_P2
2021/07/02 00:00:18;;;;;;;4.47;4.07;;;13.30;99.90;;;;;;5004338;28;20477;-66
2021/07/02 00:02:45;;;;;;;6.03;4.60;;;13.30;99.90;;;;;;5003538;28;20492;-67
2021/07/02 00:05:14;;;;;;;7.40;4.10;;;13.30;99.90;;;;;;5004896;28;20457;-66
2021/07/02 00:07:41;;;;;;;5.10;4.37;;;13.30;99.90;;;;;;5003968;28;20210;-67
2021/07/02 00:10:09;;;;;;;5.63;4.60;;;13.30;99.90;;;;;;5003091;28;20513;-67
2021/07/02 00:12:36;;;;;;;7.40;4.90;;;13.30;99.90;;;;;;5004206;28;20868;-67
2021/07/02 00:15:04;;;;;;;6.20;4.60;;;13.30;99.90;;;;;;5003334;28;20496;-67
2021/07/02 00:17:32;;;;;;;6.10;4.33;;;13.30;99.90;;;;;;5004262;28;20584;-67
2021/07/02 00:19:59;;;;;;;10.00;5.00;;;13.30;99.90;;;;;;5003940;28;20461;-65
2021/07/02 00:22:25;;;;;;;7.72;4.78;;;13.30;99.90;;;;;;5004784;28;20493;-65
2021/07/02 00:24:52;;;;;;;5.57;4.97;;;13.30;99.90;;;;;;5004042;28;20792;-66
2021/07/02 00:27:19;;;;;;;6.43;5.07;;;13.30;99.90;;;;;;5004234;28;20468;-66
2021/07/02 00:29:46;;;;;;;8.07;4.80;;;13.30;99.90;;;;;;5001035;28;20462;-66
2021/07/02 00:32:13;;;;;;;5.33;4.80;;;13.30;99.90;;;;;;5001670;28;20976;-66
2021/07/02 00:34:41;;;;;;;5.47;4.97;;;13.30;99.90;;;;;;4998885;28;20477;-67
2021/07/02 00:37:07;;;;;;;5.80;4.70;;;13.30;99.90;;;;;;5009642;28;20594;-67
2021/07/02 00:39:34;;;;;;;5.57;4.80;;;13.30;99.90;;;;;;5004923;28;20457;-67
2021/07/02 00:42:01;;;;;;;5.27;4.50;;;13.30;99.90;;;;;;5007909;28;20492;-66
2021/07/02 00:44:38;;;;;;;5.50;4.50;;;13.30;99.90;;;;;;5007993;28;21100;-67
2021/07/02 00:47:05;;;;;;;6.57;5.10;;;13.30;99.90;;;;;;5009581;28;20817;-67
2021/07/02 00:49:31;;;;;;;5.93;4.87;;;13.30;99.90;;;;;;5009313;28;20840;-67
2021/07/02 00:52:00;;;;;;;5.60;4.73;;;13.30;99.90;;;;;;5010312;28;20462;-67
2021/07/02 00:54:26;;;;;;;6.43;5.60;;;13.30;99.90;;;;;;5010069;28;20853;-67
2021/07/02 00:56:53;;;;;;;6.60;5.10;;;13.30;99.90;;;;;;5009392;28;20469;-66
2021/07/02 00:59:20;;;;;;;8.87;5.13;;;13.20;99.90;;;;;;5009313;28;20457;-66
2021/07/02 01:01:59;;;;;;;5.43;4.80;;;13.20;99.90;;;;;;5009639;28;21030;-67
2021/07/02 01:04:26;;;;;;;6.63;5.43;;;13.20;99.90;;;;;;5009230;28;20480;-67
2021/07/02 01:06:54;;;;;;;7.23;5.80;;;13.20;99.90;;;;;;5009954;28;20461;-67
2021/07/02 01:09:22;;;;;;;6.10;4.87;;;13.20;99.90;;;;;;5008984;28;20469;-67
2021/07/02 01:11:49;;;;;;;6.37;4.90;;;13.20;99.90;;;;;;5009837;28;20894;-67
2021/07/02 01:14:16;;;;;;;6.83;5.60;;;13.20;99.90;;;;;;5009614;28;20488;-67
2021/07/02 01:16:43;;;;;;;7.30;5.20;;;13.20;99.90;;;;;;5009603;28;20465;-67
2021/07/02 01:19:10;;;;;;;6.97;6.00;;;13.20;99.90;;;;;;5008736;28;20468;-65
2021/07/02 01:21:38;;;;;;;6.00;5.00;;;13.20;99.90;;;;;;5009725;28;20489;-67
2021/07/02 01:24:05;;;;;;;5.53;5.03;;;13.20;99.90;;;;;;5009303;28;20485;-67
2021/07/02 01:26:33;;;;;;;5.53;4.73;;;13.20;99.90;;;;;;5009419;28;20469;-67
2021/07/02 01:29:00;;;;;;;6.20;4.20;;;13.30;99.90;;;;;;5009494;28;20464;-66
2021/07/02 01:31:27;;;;;;;8.00;5.10;;;13.20;99.90;;;;;;5009239;28;20480;-67
2021/07/02 01:33:54;;;;;;;6.50;4.93;;;13.20;99.90;;;;;;5009376;28;20495;-67
2021/07/02 01:36:23;;;;;;;6.10;5.30;;;13.20;99.90;;;;;;5009423;28;20469;-67
2021/07/02 01:38:52;;;;;;;5.80;5.20;;;13.20;99.90;;;;;;5009284;28;20965;-66
2021/07/02 01:41:19;;;;;;;6.80;5.70;;;13.30;99.90;;;;;;5008487;28;20992;-67
2021/07/02 01:43:46;;;;;;;6.32;5.40;;;13.20;99.90;;;;;;5009191;28;20485;-67
2021/07/02 01:46:13;;;;;;;5.90;5.30;;;13.20;99.90;;;;;;5008671;28;20202;-66
2021/07/02 01:48:41;;;;;;;6.60;4.95;;;13.20;99.90;;;;;;5008916;28;20472;-67
2021/07/02 01:51:08;;;;;;;5.77;4.90;;;13.20;99.90;;;;;;5008555;28;20209;-67
2021/07/02 01:53:34;;;;;;;6.00;5.30;;;13.20;99.90;;;;;;5009229;28;20485;-67
2021/07/02 01:56:03;;;;;;;7.33;5.23;;;13.20;99.90;;;;;;5009040;28;20837;-67
2021/07/02 01:58:29;;;;;;;8.83;5.70;;;13.20;99.90;;;;;;5009156;28;20465;-67
2021/07/02 02:00:56;;;;;;;5.67;5.07;;;13.10;99.90;;;;;;5008860;28;20822;-67
2021/07/02 02:03:23;;;;;;;6.47;5.22;;;13.10;99.90;;;;;;5008813;28;20482;-67
2021/07/02 02:05:50;;;;;;;5.72;5.07;;;13.10;99.90;;;;;;5009075;28;20268;-66
2021/07/02 02:08:17;;;;;;;5.93;4.97;;;13.10;99.90;;;;;;5008953;28;20206;-67
2021/07/02 02:10:44;;;;;;;6.45;5.50;;;13.10;99.90;;;;;;5008427;28;20800;-67
2021/07/02 02:13:12;;;;;;;6.70;4.97;;;13.20;99.90;;;;;;5008918;28;20222;-67
2021/07/02 02:15:38;;;;;;;6.33;5.00;;;13.20;99.90;;;;;;5009023;28;20468;-66
2021/07/02 02:18:05;;;;;;;7.60;5.57;;;13.20;99.90;;;;;;5009449;28;20469;-67
2021/07/02 02:20:32;;;;;;;5.40;4.70;;;13.10;99.90;;;;;;5008736;28;20469;-67
2021/07/02 02:22:59;;;;;;;6.10;5.50;;;13.10;99.90;;;;;;5008587;28;20492;-67
2021/07/02 02:25:25;;;;;;;6.93;4.97;;;13.10;99.90;;;;;;5008845;28;20823;-67
2021/07/02 02:27:52;;;;;;;6.15;5.15;;;13.10;99.90;;;;;;5008671;28;20979;-67
2021/07/02 02:30:20;;;;;;;6.53;5.00;;;13.00;99.90;;;;;;5008330;28;20202;-66
2021/07/02 02:32:47;;;;;;;6.90;5.03;;;13.00;99.90;;;;;;5008661;28;20195;-67
2021/07/02 02:35:14;;;;;;;6.33;4.97;;;13.00;99.90;;;;;;5008498;28;20978;-67
2021/07/02 02:37:41;;;;;;;6.60;5.40;;;13.00;99.90;;;;;;5008911;28;20534;-67
2021/07/02 02:40:09;;;;;;;7.07;4.93;;;13.00;99.90;;;;;;5007830;28;20512;-66
2021/07/02 02:42:36;;;;;;;5.37;4.67;;;13.00;99.90;;;;;;5008965;28;20513;-65
2021/07/02 02:45:02;;;;;;;6.28;5.60;;;13.00;99.90;;;;;;5008688;28;20464;-67
2021/07/02 02:47:31;;;;;;;8.00;5.90;;;13.00;99.90;;;;;;5008606;28;20277;-67
2021/07/02 02:49:57;;;;;;;6.53;5.10;;;12.90;99.90;;;;;;5008442;28;20206;-67
2021/07/02 02:52:24;;;;;;;5.65;4.90;;;12.90;99.90;;;;;;5008330;28;20461;-66
2021/07/02 02:54:51;;;;;;;5.50;5.00;;;12.90;99.90;;;;;;5008441;28;20717;-67
2021/07/02 02:57:17;;;;;;;6.53;5.43;;;12.90;99.90;;;;;;5008188;28;20978;-67
2021/07/02 02:59:44;;;;;;;8.37;5.57;;;12.80;99.90;;;;;;5009963;28;20464;-67
2021/07/02 03:02:11;;;;;;;7.47;5.60;;;12.80;99.90;;;;;;5011734;28;20490;-66
2021/07/02 03:04:39;;;;;;;5.60;4.40;;;12.70;99.90;;;;;;5011993;28;20886;-67
2021/07/02 03:07:07;;;;;;;9.27;5.45;;;12.70;99.90;;;;;;5012091;28;20206;-67
2021/07/02 03:09:34;;;;;;;5.05;4.40;;;12.70;99.90;;;;;;5011078;28;20214;-67
2021/07/02 03:12:01;;;;;;;6.03;5.40;;;12.60;99.90;;;;;;5012224;28;20199;-67
2021/07/02 03:14:28;;;;;;;5.43;4.88;;;12.60;99.90;;;;;;5011543;28;20496;-67
2021/07/02 03:16:55;;;;;;;6.45;5.50;;;12.60;99.90;;;;;;5011860;28;20198;-67
2021/07/02 03:19:21;;;;;;;6.20;5.47;;;12.60;99.90;;;;;;5011164;28;20213;-67
2021/07/02 03:21:49;;;;;;;8.67;4.93;;;12.60;99.90;;;;;;5011557;28;20484;-66
2021/07/02 03:24:17;;;;;;;8.85;5.60;;;12.60;99.90;;;;;;5011359;28;20489;-67
2021/07/02 03:26:43;;;;;;;5.57;5.07;;;12.50;99.90;;;;;;5011540;28;20218;-67
2021/07/02 03:29:10;;;;;;;5.75;5.15;;;12.50;99.90;;;;;;5010862;28;20644;-66
2021/07/02 03:31:37;;;;;;;5.80;5.20;;;12.50;99.90;;;;;;5011617;28;20202;-67
2021/07/02 03:34:04;;;;;;;7.95;5.30;;;12.50;99.90;;;;;;5011491;28;20721;-67
2021/07/02 03:36:31;;;;;;;7.20;5.20;;;12.40;99.90;;;;;;5009449;28;20206;-66
2021/07/02 03:39:00;;;;;;;6.47;5.07;;;12.40;99.90;;;;;;5011003;28;20461;-67
2021/07/02 03:41:26;;;;;;;7.63;5.78;;;12.50;99.90;;;;;;5010328;28;20218;-67
2021/07/02 03:43:54;;;;;;;5.40;4.90;;;12.40;99.90;;;;;;5010991;28;20218;-67
2021/07/02 03:46:20;;;;;;;6.07;5.43;;;12.50;99.90;;;;;;5011802;28;20199;-67
2021/07/02 03:48:47;;;;;;;7.57;5.45;;;12.50;99.90;;;;;;5011165;28;20362;-67
2021/07/02 03:51:14;;;;;;;5.80;5.00;;;12.50;99.90;;;;;;5010119;28;20203;-67
2021/07/02 03:53:41;;;;;;;7.53;5.22;;;12.50;99.90;;;;;;5010472;28;20489;-65
2021/07/02 03:56:10;;;;;;;6.87;5.83;;;12.50;99.90;;;;;;5010270;28;20112;-66
2021/07/02 03:58:37;;;;;;;7.43;6.10;;;12.50;99.90;;;;;;5010422;28;20461;-66
2021/07/02 04:01:03;;;;;;;6.57;5.23;;;12.40;99.90;;;;;;5009769;28;20225;-66
2021/07/02 04:03:32;;;;;;;6.43;5.20;;;12.50;99.90;;;;;;5009953;28;20492;-65
2021/07/02 04:05:59;;;;;;;7.53;5.60;;;12.50;99.90;;;;;;5010536;28;20498;-66
2021/07/02 04:08:26;;;;;;;9.10;5.63;;;12.50;99.90;;;;;;5010364;28;20217;-66
2021/07/02 04:10:53;;;;;;;7.40;5.35;;;12.50;99.90;;;;;;5009983;28;20522;-66
2021/07/02 04:13:21;;;;;;;7.45;5.93;;;12.50;99.90;;;;;;5009619;28;20709;-67
2021/07/02 04:15:48;;;;;;;6.88;5.25;;;12.50;99.90;;;;;;5010254;28;20674;-67
2021/07/02 04:18:15;;;;;;;7.40;5.72;;;12.50;99.90;;;;;;5007089;28;20206;-66
2021/07/02 04:20:42;;;;;;;6.63;5.35;;;12.60;99.90;;;;;;5010271;28;20207;-67
2021/07/02 04:23:09;;;;;;;7.38;5.15;;;12.70;99.90;;;;;;5009781;28;20222;-67
2021/07/02 04:25:35;;;;;;;5.63;5.10;;;12.60;99.90;;;;;;5009864;28;20637;-65
2021/07/02 04:28:02;;;;;;;7.85;5.32;;;12.70;99.90;;;;;;5010743;28;20207;-67
2021/07/02 04:30:30;;;;;;;9.13;5.53;;;12.70;99.90;;;;;;5009543;28;20202;-67
2021/07/02 04:32:57;;;;;;;6.50;5.60;;;12.80;99.90;;;;;;5009115;28;20481;-66
2021/07/02 04:35:23;;;;;;;6.13;5.50;;;12.90;99.90;;;;;;5009591;28;20887;-66
2021/07/02 04:37:50;;;;;;;8.70;5.87;;;12.90;99.90;;;;;;5010425;28;20456;-66
2021/07/02 04:40:17;;;;;;;6.47;5.57;;;13.00;99.90;;;;;;5078420;22;20505;-92
2021/07/02 04:42:45;;;;;;;6.63;5.77;;;13.00;99.90;;;;;;5067348;28;20506;-91
2021/07/02 04:45:12;;;;;;;8.48;6.15;;;13.10;99.90;;;;;;5076296;28;20466;-91
2021/07/02 04:48:11;;;;;;;6.90;5.57;;;13.10;99.90;;;;;;5077181;28;20200;-92
2021/07/02 04:51:13;;;;;;;8.33;5.20;;;13.20;99.90;;;;;;5077312;28;20513;-92
2021/07/02 04:53:48;;;;;;;6.90;5.70;;;13.20;99.90;;;;;;5077199;28;20465;-92
2021/07/02 04:56:16;;;;;;;6.03;5.43;;;13.30;99.90;;;;;;5074474;28;20458;-91
2021/07/02 04:58:44;;;;;;;6.37;5.63;;;13.30;99.90;;;;;;5082918;22;20817;-74
2021/07/02 05:01:12;;;;;;;5.90;5.17;;;13.40;99.90;;;;;;5007494;28;20875;-74
2021/07/02 05:03:39;;;;;;;5.73;5.13;;;13.50;99.90;;;;;;5009488;28;20535;-74
2021/07/02 05:06:07;;;;;;;6.50;5.90;;;13.50;99.90;;;;;;5009499;28;20842;-74
2021/07/02 05:08:34;;;;;;;7.57;5.77;;;13.50;99.90;;;;;;5009451;28;20895;-74
2021/07/02 05:11:02;;;;;;;6.30;5.50;;;13.60;99.90;;;;;;5009212;28;20812;-74
2021/07/02 05:13:29;;;;;;;8.53;5.93;;;13.50;99.90;;;;;;5009803;28;20542;-74
2021/07/02 05:15:55;;;;;;;5.90;5.23;;;13.50;99.90;;;;;;5009521;28;20844;-74
2021/07/02 05:18:22;;;;;;;7.23;5.70;;;13.50;99.90;;;;;;5010625;28;20458;-73
2021/07/02 05:20:49;;;;;;;8.83;6.70;;;13.50;99.90;;;;;;5009079;28;20838;-74
2021/07/02 05:23:17;;;;;;;5.90;5.23;;;13.50;99.90;;;;;;5008781;28;20859;-74
2021/07/02 05:25:43;;;;;;;6.70;5.90;;;13.50;99.90;;;;;;5009544;28;20475;-74
2021/07/02 05:28:10;;;;;;;6.70;5.37;;;13.60;99.90;;;;;;5009307;28;20469;-74
2021/07/02 05:30:37;;;;;;;6.57;5.10;;;13.60;99.90;;;;;;5009104;28;20472;-74
2021/07/02 05:33:04;;;;;;;6.70;5.43;;;13.70;99.90;;;;;;5009081;28;20485;-74
2021/07/02 05:35:31;;;;;;;6.67;5.50;;;13.60;99.90;;;;;;5009172;28;20472;-74
2021/07/02 05:37:57;;;;;;;7.00;5.60;;;13.60;99.90;;;;;;5009071;28;20472;-74
2021/07/02 05:40:26;;;;;;;6.80;5.80;;;13.60;99.90;;;;;;5008708;28;20979;-74
2021/07/02 05:42:52;;;;;;;8.93;4.97;;;13.60;99.90;;;;;;5008813;28;21000;-74
2021/07/02 05:45:19;;;;;;;7.97;6.23;;;13.70;99.90;;;;;;5009159;28;20860;-74
2021/07/02 05:47:49;;;;;;;6.40;5.27;;;13.70;99.90;;;;;;5009221;28;20471;-74
2021/07/02 05:50:16;;;;;;;7.63;5.40;;;13.80;99.90;;;;;;5008248;28;20465;-74
2021/07/02 05:52:43;;;;;;;5.80;5.00;;;13.70;99.90;;;;;;5008941;28;21221;-74
2021/07/02 05:55:12;;;;;;;7.80;5.40;;;13.90;99.90;;;;;;5008666;28;20465;-75
2021/07/02 05:57:40;;;;;;;5.90;5.30;;;13.90;99.90;;;;;;5009174;28;20465;-74
2021/07/02 06:00:09;;;;;;;6.73;5.70;;;13.90;99.90;;;;;;5008102;28;20480;-74
2021/07/02 06:02:36;;;;;;;5.70;5.03;;;13.90;99.90;;;;;;5008804;28;20468;-75
2021/07/02 06:05:03;;;;;;;6.57;5.90;;;14.00;99.90;;;;;;5008358;28;20476;-75
2021/07/02 06:07:30;;;;;;;7.40;6.27;;;14.10;99.90;;;;;;5008705;28;20468;-74
2021/07/02 06:09:56;;;;;;;7.07;5.73;;;14.20;99.90;;;;;;5008109;28;20465;-75
2021/07/02 06:12:23;;;;;;;7.57;5.00;;;14.20;99.90;;;;;;5009005;28;20484;-74
2021/07/02 06:14:51;;;;;;;5.57;5.03;;;14.30;99.90;;;;;;5008954;28;20492;-74
2021/07/02 06:17:18;;;;;;;5.77;5.17;;;14.30;99.90;;;;;;5008531;28;20472;-74
2021/07/02 06:19:44;;;;;;;5.77;5.17;;;14.40;99.90;;;;;;5008130;28;20846;-74
2021/07/02 06:22:11;;;;;;;5.80;5.23;;;14.50;99.90;;;;;;5008267;28;20841;-75
2021/07/02 06:24:38;;;;;;;6.73;5.20;;;14.60;99.90;;;;;;5008712;28;20493;-75
2021/07/02 06:27:06;;;;;;;7.97;5.77;;;14.70;99.90;;;;;;5008271;28;20465;-74
2021/07/02 06:29:32;;;;;;;6.30;5.20;;;14.80;99.90;;;;;;5008156;28;20469;-75
2021/07/02 06:32:00;;;;;;;5.30;4.80;;;14.90;99.90;;;;;;5008500;28;20496;-75
2021/07/02 06:34:27;;;;;;;6.50;5.90;;;15.00;99.90;;;;;;5011701;28;20477;-75
2021/07/02 06:36:54;;;;;;;6.20;5.60;;;15.10;99.90;;;;;;5011913;28;20540;-74
2021/07/02 06:39:21;;;;;;;8.17;5.40;;;15.10;99.90;;;;;;5011678;28;20761;-75
2021/07/02 06:41:48;;;;;;;7.20;5.87;;;15.30;99.90;;;;;;5012310;28;20875;-75
2021/07/02 06:44:15;;;;;;;9.00;5.83;;;15.30;99.90;;;;;;5011846;28;20724;-75
2021/07/02 06:46:41;;;;;;;7.40;5.83;;;15.30;99.90;;;;;;5012166;28;20841;-74
2021/07/02 06:49:10;;;;;;;6.80;5.73;;;15.40;99.90;;;;;;5011626;28;20461;-75
2021/07/02 06:51:37;;;;;;;8.70;5.13;;;15.40;99.90;;;;;;5012190;28;20461;-74
2021/07/02 06:54:04;;;;;;;7.97;5.57;;;15.50;99.90;;;;;;5011625;28;20504;-74
2021/07/02 06:56:32;;;;;;;7.80;5.27;;;15.50;99.90;;;;;;5011903;28;20468;-74
2021/07/02 06:58:59;;;;;;;10.03;5.80;;;15.60;99.90;;;;;;5011083;28;21042;-75
2021/07/02 07:01:26;;;;;;;6.40;5.70;;;15.60;99.90;;;;;;5011610;28;20847;-74
2021/07/02 07:03:53;;;;;;;7.40;6.27;;;15.70;99.90;;;;;;5011417;28;20493;-75
2021/07/02 07:06:21;;;;;;;7.47;6.00;;;15.70;99.90;;;;;;5011940;28;20469;-76
2021/07/02 07:08:48;;;;;;;6.03;5.43;;;15.80;99.90;;;;;;5008729;28;20480;-75
2021/07/02 07:11:15;;;;;;;7.47;5.60;;;15.80;99.90;;;;;;5006794;28;20472;-74
2021/07/02 07:13:42;;;;;;;6.93;5.83;;;15.90;99.90;;;;;;5007019;28;20578;-75
2021/07/02 07:16:09;;;;;;;6.43;5.77;;;16.00;99.90;;;;;;5008414;28;20468;-75
2021/07/02 07:18:36;;;;;;;6.33;5.70;;;16.10;99.90;;;;;;5006850;28;20461;-74
2021/07/02 07:21:04;;;;;;;6.00;5.40;;;16.20;99.90;;;;;;5005816;28;20537;-74
2021/07/02 07:23:32;;;;;;;6.00;5.40;;;16.30;99.90;;;;;;5005953;28;20492;-75
2021/07/02 07:25:59;;;;;;;6.30;5.57;;;16.30;99.90;;;;;;5006987;28;20469;-74
2021/07/02 07:28:26;;;;;;;6.80;5.77;;;16.40;99.90;;;;;;5007211;28;20480;-75
2021/07/02 07:30:52;;;;;;;9.27;5.93;;;16.40;99.90;;;;;;5005813;28;20801;-75
2021/07/02 07:33:19;;;;;;;5.80;5.20;;;16.40;99.90;;;;;;5006375;28;20489;-75
2021/07/02 07:35:47;;;;;;;7.33;5.10;;;16.50;99.90;;;;;;5006529;28;20465;-74
2021/07/02 07:38:14;;;;;;;8.67;5.33;;;16.50;99.90;;;;;;5007084;28;20520;-75
2021/07/02 07:40:42;;;;;;;7.03;5.03;;;16.60;99.90;;;;;;5006284;28;20469;-75
2021/07/02 07:43:09;;;;;;;5.97;4.90;;;16.70;99.90;;;;;;5006879;28;20531;-75
2021/07/02 07:45:36;;;;;;;6.07;5.20;;;16.80;99.90;;;;;;5005276;28;20465;-75
2021/07/02 07:48:03;;;;;;;6.03;5.40;;;16.80;99.90;;;;;;5006662;28;20822;-74
2021/07/02 07:50:38;;;;;;;6.50;5.90;;;16.80;99.90;;;;;;5005887;28;20475;-75
2021/07/02 07:53:05;;;;;;;7.30;6.20;;;16.90;99.90;;;;;;5006758;28;20886;-75
2021/07/02 07:55:32;;;;;;;6.40;4.90;;;17.00;99.90;;;;;;5005373;28;20820;-74
2021/07/02 07:58:00;;;;;;;7.07;5.80;;;17.10;99.90;;;;;;5006166;28;20515;-75
2021/07/02 08:00:28;;;;;;;6.33;5.57;;;17.20;99.90;;;;;;5005456;28;20473;-75
2021/07/02 08:02:55;;;;;;;6.50;5.67;;;17.40;99.90;;;;;;5006048;28;20497;-74
2021/07/02 08:05:22;;;;;;;6.57;5.30;;;17.50;99.90;;;;;;5006866;28;20500;-75
2021/07/02 08:07:50;;;;;;;5.77;5.27;;;17.60;99.90;;;;;;5005902;28;20488;-75
2021/07/02 08:10:18;;;;;;;7.33;4.90;;;17.60;99.90;;;;;;5005384;28;20501;-75
2021/07/02 08:12:45;;;;;;;6.53;4.80;;;17.60;99.90;;;;;;5005279;28;20465;-75
2021/07/02 08:15:15;;;;;;;5.70;5.10;;;17.50;99.90;;;;;;5005733;28;20465;-74
2021/07/02 08:17:42;;;;;;;5.60;5.10;;;17.40;99.90;;;;;;5005510;28;20880;-74
2021/07/02 08:20:10;;;;;;;4.93;4.53;;;17.40;99.90;;;;;;5005371;28;20464;-74
2021/07/02 08:22:37;;;;;;;5.90;5.20;;;17.50;99.90;;;;;;5005572;28;20978;-75
2021/07/02 08:25:04;;;;;;;5.87;4.90;;;17.60;99.90;;;;;;5005573;28;20493;-75
2021/07/02 08:27:35;;;;;;;8.90;4.90;;;17.70;99.90;;;;;;5010884;28;20922;-75
2021/07/02 08:30:01;;;;;;;7.43;5.13;;;17.70;99.90;;;;;;5011117;28;20523;-75
2021/07/02 08:32:29;;;;;;;5.27;4.77;;;17.80;99.90;;;;;;5010978;28;20489;-74
2021/07/02 08:34:55;;;;;;;4.90;4.40;;;17.90;99.90;;;;;;5011403;28;20464;-75
2021/07/02 08:37:22;;;;;;;5.77;5.27;;;17.80;99.90;;;;;;5010900;28;20465;-75
2021/07/02 08:39:49;;;;;;;5.10;4.60;;;17.70;99.90;;;;;;5011228;28;20480;-75
2021/07/02 08:42:15;;;;;;;4.90;4.50;;;17.60;99.90;;;;;;5011391;28;20507;-75
2021/07/02 08:44:42;;;;;;;5.30;4.70;;;17.50;99.90;;;;;;5010601;28;20489;-74
2021/07/02 08:47:10;;;;;;;4.70;4.27;;;17.50;99.90;;;;;;5011113;28;20464;-75
2021/07/02 08:49:44;;;;;;;5.43;4.93;;;17.60;99.90;;;;;;5009916;28;20461;-76
2021/07/02 08:52:10;;;;;;;5.30;4.80;;;17.70;99.90;;;;;;5010985;28;20461;-74
2021/07/02 08:54:37;;;;;;;5.70;4.60;;;17.80;99.90;;;;;;5010277;28;20837;-74
2021/07/02 08:57:04;;;;;;;5.87;4.50;;;17.80;99.90;;;;;;5010766;28;20461;-75
2021/07/02 08:59:31;;;;;;;6.43;4.80;;;17.90;99.90;;;;;;5009564;28;20473;-75
2021/07/02 09:01:58;;;;;;;6.97;4.80;;;18.00;99.90;;;;;;5010507;28;20464;-75
2021/07/02 09:04:27;;;;;;;5.10;4.60;;;18.10;99.90;;;;;;5009974;28;20826;-74
2021/07/02 09:07:03;;;;;;;5.30;4.77;;;18.20;99.90;;;;;;5010127;28;20461;-74
2021/07/02 09:09:50;;;;;;;7.00;5.50;;;18.40;99.90;;;;;;5009875;28;20463;-75
2021/07/02 09:12:19;;;;;;;4.90;4.10;;;18.50;99.90;;;;;;5010947;28;21019;-74
2021/07/02 09:14:56;;;;;;;4.90;4.40;;;18.50;99.90;;;;;;5009213;28;20857;-75
2021/07/02 09:17:24;;;;;;;4.80;4.40;;;18.40;99.90;;;;;;5009526;28;20967;-74
2021/07/02 09:20:10;;;;;;;4.80;4.30;;;18.30;99.90;;;;;;5009111;28;20465;-74
2021/07/02 09:22:43;;;;;;;5.20;4.80;;;18.30;99.90;;;;;;5009018;28;20891;-74
2021/07/02 09:25:12;;;;;;;5.70;4.50;;;18.40;99.90;;;;;;5010130;28;21011;-74
2021/07/02 09:27:43;;;;;;;7.03;5.17;;;18.50;99.90;;;;;;5009395;28;20947;-74
2021/07/02 09:30:12;;;;;;;4.93;4.43;;;18.60;99.90;;;;;;5009022;28;20469;-74
2021/07/02 09:32:41;;;;;;;4.13;3.83;;;18.70;99.90;;;;;;5009548;28;20512;-74
2021/07/02 09:35:09;;;;;;;4.80;4.30;;;18.90;99.90;;;;;;5009671;28;20527;-74
2021/07/02 09:37:38;;;;;;;4.97;4.30;;;19.10;99.90;;;;;;5009082;28;20523;-75
2021/07/02 09:40:13;;;;;;;4.63;4.23;;;19.20;99.90;;;;;;5008583;28;20523;-74
2021/07/02 09:42:40;;;;;;;5.20;4.70;;;19.30;99.90;;;;;;5008502;28;20983;-74
2021/07/02 09:45:09;;;;;;;4.93;4.50;;;19.30;99.90;;;;;;5009178;28;20477;-74
2021/07/02 09:47:38;;;;;;;5.30;4.67;;;19.10;99.90;;;;;;5009101;28;20839;-75
2021/07/02 09:50:31;;;;;;;7.10;4.47;;;19.00;99.90;;;;;;5008380;28;21121;-75
2021/07/02 09:53:00;;;;;;;4.80;4.30;;;18.90;99.90;;;;;;4973944;28;20493;-75
2021/07/02 09:55:30;;;;;;;5.50;4.57;;;19.00;99.90;;;;;;5008650;28;20837;-75
2021/07/02 09:58:08;;;;;;;6.80;4.37;;;19.10;99.90;;;;;;5008945;28;20536;-74
2021/07/02 10:00:39;;;;;;;4.70;4.30;;;19.30;99.90;;;;;;5008282;28;20465;-74
2021/07/02 10:03:07;;;;;;;4.43;4.03;;;19.50;99.90;;;;;;5008938;28;20535;-74
2021/07/02 10:05:46;;;;;;;5.43;4.93;;;19.60;99.90;;;;;;5008915;28;20519;-74
2021/07/02 10:08:13;;;;;;;5.90;4.60;;;19.70;99.90;;;;;;5010017;28;20467;-75
2021/07/02 10:10:41;;;;;;;4.03;3.73;;;19.90;99.90;;;;;;5012229;28;20826;-74
2021/07/02 10:13:08;;;;;;;4.97;4.57;;;19.90;99.90;;;;;;5012522;28;20485;-75
2021/07/02 10:15:35;;;;;;;6.87;5.00;;;20.00;99.90;;;;;;5012621;28;20465;-73
2021/07/02 10:18:03;;;;;;;5.30;4.80;;;20.00;99.90;;;;;;5012681;28;20476;-74
2021/07/02 10:20:32;;;;;;;4.73;4.27;;;20.10;99.90;;;;;;5012047;28;20813;-75
2021/07/02 10:23:00;;;;;;;4.90;4.20;;;20.20;99.90;;;;;;5008103;28;20563;-75
2021/07/02 10:25:29;;;;;;;4.43;4.00;;;20.30;99.90;;;;;;4986582;28;20564;-74
2021/07/02 10:27:58;;;;;;;4.30;3.90;;;20.20;99.90;;;;;;4992262;28;20469;-74
2021/07/02 10:30:25;;;;;;;4.80;4.40;;;20.20;99.90;;;;;;4991539;28;20458;-75
2021/07/02 10:32:58;;;;;;;4.40;4.00;;;20.30;99.90;;;;;;4992010;28;20481;-74
2021/07/02 10:35:28;;;;;;;5.13;4.27;;;20.50;99.90;;;;;;4990375;28;20476;-75
2021/07/02 10:37:57;;;;;;;4.57;4.17;;;20.60;99.90;;;;;;4990291;28;21137;-74
2021/07/02 10:40:38;;;;;;;4.63;4.23;;;20.70;99.90;;;;;;4990809;28;20963;-74
2021/07/02 10:43:08;;;;;;;5.60;4.93;;;20.80;99.90;;;;;;4991903;28;20508;-75
2021/07/02 10:45:35;;;;;;;4.70;4.30;;;20.90;99.90;;;;;;4991545;28;20496;-74
2021/07/02 10:48:02;;;;;;;4.07;3.70;;;20.90;99.90;;;;;;4991925;28;20834;-74
2021/07/02 10:50:40;;;;;;;4.30;3.90;;;20.90;99.90;;;;;;4990944;28;20466;-75
2021/07/02 10:53:27;;;;;;;4.93;4.43;;;21.00;99.90;;;;;;4991941;28;20481;-74
2021/07/02 10:55:55;;;;;;;5.10;4.70;;;21.20;99.90;;;;;;4991680;28;20468;-75
2021/07/02 10:58:23;;;;;;;3.90;3.60;;;21.10;99.90;;;;;;4991613;28;20469;-74
2021/07/02 11:01:12;;;;;;;4.17;3.77;;;21.10;99.90;;;;;;4990631;28;20477;-74
2021/07/02 11:03:39;;;;;;;6.13;4.77;;;21.20;99.90;;;;;;4991231;28;20478;-74
2021/07/02 11:06:38;;;;;;;4.87;4.47;;;21.20;99.90;;;;;;4991339;28;20486;-74
2021/07/02 11:09:05;;;;;;;5.30;4.67;;;21.30;99.90;;;;;;4991727;28;20492;-75
2021/07/02 11:12:10;;;;;;;4.70;3.83;;;21.20;99.90;;;;;;4991091;28;20987;-74
2021/07/02 11:15:11;;;;;;;4.60;4.17;;;21.10;99.90;;;;;;4989038;28;20473;-75
2021/07/02 11:17:39;;;;;;;5.20;4.70;;;21.10;99.90;;;;;;4990788;28;21019;-75
2021/07/02 11:20:27;;;;;;;4.77;4.37;;;21.10;99.90;;;;;;4989232;28;20466;-75
2021/07/02 11:23:13;;;;;;;4.87;4.47;;;21.20;99.90;;;;;;4991136;28;20481;-74
2021/07/02 11:25:46;;;;;;;5.73;4.30;;;21.40;99.90;;;;;;4990387;28;20486;-75
2021/07/02 11:28:16;;;;;;;6.03;3.90;;;21.50;99.90;;;;;;4990623;28;20954;-75
2021/07/02 11:30:47;;;;;;;5.20;3.97;;;21.40;99.90;;;;;;4989971;28;20458;-75
2021/07/02 11:33:19;;;;;;;4.83;4.43;;;21.30;99.90;;;;;;4990678;28;21218;-75
2021/07/02 11:35:47;;;;;;;5.20;4.70;;;21.40;99.90;;;;;;4990312;28;20546;-75
2021/07/02 11:38:15;;;;;;;4.40;4.00;;;21.40;99.90;;;;;;4991223;28;20557;-74
2021/07/02 11:40:48;;;;;;;6.13;4.13;;;21.40;99.90;;;;;;4989998;28;20972;-75
2021/07/02 11:43:16;;;;;;;5.10;4.70;;;21.30;99.90;;;;;;4990876;28;21275;-74
2021/07/02 11:45:47;;;;;;;5.00;4.50;;;21.30;99.90;;;;;;4993003;28;20488;-75
2021/07/02 11:48:32;;;;;;;4.70;4.30;;;21.40;99.90;;;;;;5010276;28;20968;-74
2021/07/02 11:51:00;;;;;;;5.20;4.70;;;21.50;99.90;;;;;;5009639;28;20564;-74
2021/07/02 11:53:28;;;;;;;5.10;4.53;;;21.60;99.90;;;;;;5009674;28;20484;-74
2021/07/02 11:56:00;;;;;;;6.30;5.10;;;21.80;99.90;;;;;;5009781;28;20835;-75
2021/07/02 11:58:28;;;;;;;5.03;4.60;;;21.80;99.90;;;;;;5009872;28;20461;-74
2021/07/02 12:00:57;;;;;;;5.00;4.50;;;21.70;99.90;;;;;;5009275;28;20465;-74
2021/07/02 12:03:25;;;;;;;5.60;5.00;;;21.60;99.90;;;;;;5009566;28;20493;-75
2021/07/02 12:05:56;;;;;;;5.77;5.27;;;21.60;99.90;;;;;;5009606;28;20489;-75
2021/07/02 12:08:23;;;;;;;5.37;4.87;;;21.60;99.90;;;;;;5010746;28;20552;-75
2021/07/02 12:10:59;;;;;;;4.87;4.43;;;21.40;99.90;;;;;;5009265;28;20877;-75
2021/07/02 12:13:26;;;;;;;4.70;4.20;;;21.30;99.90;;;;;;5009193;28;20485;-75
2021/07/02 12:16:08;;;;;;;4.87;4.47;;;21.20;99.90;;;;;;5009977;28;20461;-74
2021/07/02 12:18:36;;;;;;;5.53;5.03;;;21.40;99.90;;;;;;5009708;28;20960;-74
2021/07/02 12:21:05;;;;;;;5.70;5.10;;;21.50;99.90;;;;;;5009531;28;20472;-75
2021/07/02 12:23:34;;;;;;;5.97;4.53;;;21.70;99.90;;;;;;5009059;28;20481;-75
2021/07/02 12:26:12;;;;;;;6.90;5.10;;;21.60;99.90;;;;;;5007646;28;20493;-74
2021/07/02 12:29:06;;;;;;;4.70;4.30;;;21.40;99.90;;;;;;5024928;22;20488;-67
2021/07/02 12:31:37;;;;;;;5.40;4.90;;;21.40;99.90;;;;;;5024315;28;20465;-67
2021/07/02 12:34:05;;;;;;;4.93;4.53;;;21.60;99.90;;;;;;5026520;28;20480;-67
2021/07/02 12:36:32;;;;;;;5.60;4.50;;;21.60;99.90;;;;;;5030047;28;20971;-68
2021/07/02 12:39:08;;;;;;;6.90;5.20;;;21.60;99.90;;;;;;5029525;28;21311;-67
2021/07/02 12:41:40;;;;;;;5.10;4.60;;;21.80;99.90;;;;;;5029962;28;20466;-67
2021/07/02 12:44:08;;;;;;;5.07;4.60;;;21.90;99.90;;;;;;5029280;28;20477;-67
2021/07/02 12:46:37;;;;;;;5.50;5.00;;;22.10;99.90;;;;;;5029529;28;20491;-68
2021/07/02 12:49:35;;;;;;;5.20;4.70;;;22.10;99.90;;;;;;5029245;28;20467;-67
2021/07/02 12:54:56;;;;;;;4.97;4.50;;;21.90;99.90;;;;;;5029668;28;20463;-68
2021/07/02 12:57:29;;;;;;;7.33;4.77;;;21.70;99.90;;;;;;5029665;28;20543;-68
2021/07/02 12:59:58;;;;;;;5.70;4.87;;;21.70;99.90;;;;;;5029302;28;20828;-68